Time;durP1;ratioP1;P1;durP2;ratioP2;P2;SDS_P1;SDS_P2;PMS_P1;PMS_P2;Temp;Humidity;BMP_temperature;BMP_pressure;BME280_temperature;BME280_humidity;BME280_pressure;Samples;Min_cycle;Max_cycle;Signal;HPM_P1;HPM_P2
2023/03/07 00:00:38;;;;;;;;;4.00;3.50;;;;;20.73;35.73;100343.94;5041734;28;47248;-71
2023/03/07 00:03:04;;;;;;;;;5.00;4.25;;;;;20.72;35.91;100339.66;5035940;28;45358;-71
2023/03/07 00:05:30;;;;;;;;;3.75;3.75;;;;;20.73;35.98;100339.47;5035739;28;45359;-71
2023/03/07 00:07:56;;;;;;;;;2.00;2.00;;;;;20.73;35.81;100328.91;5035634;28;45328;-72
2023/03/07 00:10:22;;;;;;;;;8.25;5.25;;;;;20.73;35.40;100336.00;5042796;28;46293;-71
2023/03/07 00:12:47;;;;;;;;;5.50;3.25;;;;;20.72;35.89;100335.19;5029031;28;45443;-71
2023/03/07 00:15:12;;;;;;;;;2.25;2.25;;;;;20.72;35.40;100326.44;5017125;28;45311;-71
2023/03/07 00:17:39;;;;;;;;;4.75;4.75;;;;;20.64;35.69;100311.47;5044220;28;45324;-71
2023/03/07 00:20:06;;;;;;;;;5.25;5.25;;;;;20.73;35.37;100331.53;5034908;28;46903;-71
2023/03/07 00:22:34;;;;;;;;;3.00;2.00;;;;;20.69;35.76;100318.84;5035634;28;45457;-71
2023/03/07 00:25:00;;;;;;;;;3.25;3.25;;;;;20.73;35.66;100320.16;5035462;28;45477;-71
2023/03/07 00:27:26;;;;;;;;;6.50;5.25;;;;;20.73;35.49;100318.31;5035559;28;45546;-71
2023/03/07 00:29:52;;;;;;;;;4.25;3.75;;;;;20.73;35.61;100313.03;5035477;28;47092;-71
2023/03/07 00:32:17;;;;;;;;;4.00;3.00;;;;;20.68;35.72;100294.28;5027016;28;45645;-71
2023/03/07 00:34:42;;;;;;;;;3.50;3.50;;;;;20.73;35.70;100299.81;5044789;28;45548;-71
2023/03/07 00:37:07;;;;;;;;;6.25;5.75;;;;;20.74;35.67;100301.44;5036022;28;45507;-71
2023/03/07 00:39:34;;;;;;;;;3.00;3.00;;;;;20.75;35.71;100291.69;5035410;28;46475;-71
2023/03/07 00:41:59;;;;;;;;;5.00;4.00;;;;;20.74;35.50;100293.50;5035065;28;45331;-71
2023/03/07 00:44:28;;;;;;;;;7.00;6.50;;;;;20.76;35.85;100289.88;5035533;28;45378;-71
2023/03/07 00:46:54;;;;;;;;;7.25;4.25;;;;;20.76;35.82;100284.59;5035490;28;45303;-71
2023/03/07 00:49:19;;;;;;;;;4.25;4.25;;;;;20.64;35.80;100261.25;5034649;28;45976;-72
2023/03/07 00:51:45;;;;;;;;;7.50;6.00;;;;;20.77;35.67;100280.91;5035329;28;46087;-71
2023/03/07 00:54:10;;;;;;;;;4.25;4.25;;;;;20.77;35.90;100270.34;5035628;28;45354;-71
2023/03/07 00:56:35;;;;;;;;;6.25;5.00;;;;;20.67;35.25;100260.06;5034975;28;45538;-71
2023/03/07 00:59:01;;;;;;;;;3.00;3.00;;;;;20.77;35.45;100273.81;5038669;28;46146;-71
2023/03/07 01:01:27;;;;;;;;;4.00;4.00;;;;;20.78;35.60;100270.19;5037646;28;45853;-71
2023/03/07 01:03:53;;;;;;;;;5.50;5.00;;;;;20.77;35.67;100273.81;5037650;28;45411;-71
2023/03/07 01:06:20;;;;;;;;;4.75;4.25;;;;;20.79;35.04;100271.81;5039082;28;45419;-71
2023/03/07 01:08:46;;;;;;;;;6.25;5.75;;;;;20.77;35.75;100268.53;5028977;28;45379;-71
2023/03/07 01:11:12;;;;;;;;;3.00;3.00;;;;;20.78;35.55;100264.06;5038526;28;45466;-71
2023/03/07 01:13:37;;;;;;;;;4.00;4.00;;;;;20.78;35.68;100253.50;5038643;28;45431;-71
2023/03/07 01:16:16;;;;;;;;;4.00;4.00;;;;;20.77;35.40;100259.78;5026534;28;45649;-71
2023/03/07 01:18:43;;;;;;;;;4.75;4.75;;;;;20.76;35.72;100256.34;5038155;28;47104;-71
2023/03/07 01:21:11;;;;;;;;;6.50;4.75;;;;;20.75;35.75;100252.03;5041817;28;45421;-71
2023/03/07 01:23:37;;;;;;;;;4.00;4.00;;;;;20.74;35.45;100243.28;5038537;28;45422;-71
2023/03/07 01:26:02;;;;;;;;;3.25;3.25;;;;;20.75;35.65;100244.09;5017499;28;45391;-71
2023/03/07 01:28:28;;;;;;;;;6.25;3.00;;;;;20.72;35.76;100245.31;5032875;28;45515;-71
2023/03/07 01:30:57;;;;;;;;;4.00;3.00;;;;;20.65;35.39;100227.72;5038460;28;45406;-71
2023/03/07 01:33:23;;;;;;;;;4.25;4.00;;;;;20.76;35.71;100242.28;5038067;28;45450;-71
2023/03/07 01:35:48;;;;;;;;;6.50;4.50;;;;;20.76;35.84;100243.13;5041488;28;45332;-71
2023/03/07 01:38:14;;;;;;;;;4.00;4.00;;;;;20.75;35.68;100241.47;5018101;28;45666;-71
2023/03/07 01:40:39;;;;;;;;;4.25;4.25;;;;;20.75;35.59;100236.19;5027901;28;45465;-71
2023/03/07 01:43:37;;;;;;;;;6.50;4.00;;;;;20.74;35.65;100235.34;5018328;28;45282;-71
2023/03/07 01:46:17;;;;;;;;;3.25;3.25;;;;;20.73;35.75;100223.16;4963405;28;45627;-71
2023/03/07 01:48:49;;;;;;;;;6.25;4.25;;;;;20.68;35.58;100209.69;4956792;28;45388;-71
2023/03/07 01:51:16;;;;;;;;;4.00;4.00;;;;;20.73;35.64;100219.69;4956705;28;45481;-71
2023/03/07 01:53:41;;;;;;;;;3.25;3.00;;;;;20.76;35.32;100216.69;4948193;28;45422;-71
2023/03/07 01:56:08;;;;;;;;;5.75;3.75;;;;;20.68;35.40;100203.56;4956810;28;45343;-71
2023/03/07 01:58:36;;;;;;;;;7.25;4.25;;;;;20.70;35.57;100201.56;4956672;28;47052;-71
2023/03/07 02:01:01;;;;;;;;;5.75;4.50;;;;;20.74;35.18;100211.56;4964276;28;45211;-71
2023/03/07 02:03:36;;;;;;;;;2.50;2.00;;;;;20.74;35.18;100200.97;4956983;28;45416;-71
2023/03/07 02:06:06;;;;;;;;;5.75;3.50;;;;;20.73;35.15;100201.19;4956409;28;45390;-71
2023/03/07 02:08:34;;;;;;;;;4.00;4.00;;;;;20.72;35.08;100194.25;4945685;28;48526;-71
2023/03/07 02:10:59;;;;;;;;;5.25;3.75;;;;;20.69;35.18;100189.31;4957405;28;45471;-71
2023/03/07 02:13:25;;;;;;;;;4.00;4.00;;;;;20.72;35.29;100187.13;4960353;28;45457;-71
2023/03/07 02:15:51;;;;;;;;;6.75;6.00;;;;;20.69;35.54;100184.03;4958707;28;45389;-70
2023/03/07 02:18:20;;;;;;;;;4.75;4.75;;;;;20.70;35.11;100183.88;4965066;28;46170;-71
2023/03/07 02:20:57;;;;;;;;;5.75;3.00;;;;;20.71;35.43;100180.22;4964232;28;45285;-71
2023/03/07 02:23:37;;;;;;;;;4.00;3.75;;;;;20.71;35.37;100177.56;5017719;28;45378;-71
2023/03/07 02:26:14;;;;;;;;;4.25;3.00;;;;;20.71;35.23;100169.63;5028046;28;45468;-71
2023/03/07 02:28:41;;;;;;;;;4.00;3.00;;;;;20.71;35.19;100174.13;5017460;28;46241;-71
2023/03/07 02:31:08;;;;;;;;;4.00;4.00;;;;;20.71;35.55;100172.28;5017283;28;45448;-71
2023/03/07 02:33:34;;;;;;;;;3.50;3.00;;;;;20.65;35.52;100154.53;5027583;28;45290;-71
2023/03/07 02:36:07;;;;;;;;;4.00;2.00;;;;;20.70;35.25;100149.50;5018787;28;45521;-71
2023/03/07 02:38:36;;;;;;;;;4.75;4.50;;;;;20.70;35.44;100152.16;5036947;28;46701;-71
2023/03/07 02:41:03;;;;;;;;;5.25;5.00;;;;;20.70;35.24;100148.69;5045684;28;45312;-71
2023/03/07 02:43:28;;;;;;;;;3.25;3.00;;;;;20.70;35.52;100151.31;5037275;28;45473;-71
2023/03/07 02:45:54;;;;;;;;;5.00;3.00;;;;;20.69;35.38;100152.31;5036953;28;45496;-71
2023/03/07 02:48:20;;;;;;;;;4.75;4.00;;;;;20.60;35.09;100136.59;5036809;28;45854;-71
2023/03/07 02:50:47;;;;;;;;;4.00;4.00;;;;;20.68;35.14;100140.13;5037444;28;45274;-71
2023/03/07 02:53:12;;;;;;;;;4.00;4.00;;;;;20.69;35.19;100142.56;5036604;28;45316;-71
2023/03/07 02:55:38;;;;;;;;;4.00;3.50;;;;;20.69;35.21;100131.19;5037563;28;45662;-71
2023/03/07 02:58:03;;;;;;;;;3.00;3.00;;;;;20.69;35.47;100134.63;5036562;28;46064;-71
2023/03/07 03:00:29;;;;;;;;;5.00;3.25;;;;;20.68;35.42;100129.56;5038884;28;45313;-71
2023/03/07 03:02:54;;;;;;;;;5.00;3.25;;;;;20.68;35.12;100121.63;5038933;28;45315;-71
2023/03/07 03:05:20;;;;;;;;;5.50;4.00;;;;;20.62;35.52;100115.25;5038179;28;45286;-71
2023/03/07 03:07:45;;;;;;;;;6.75;5.75;;;;;20.68;35.21;100117.16;5036774;28;46836;-71
2023/03/07 03:10:11;;;;;;;;;2.75;2.75;;;;;20.67;35.16;100115.50;5036828;28;45263;-71
2023/03/07 03:12:36;;;;;;;;;5.75;5.00;;;;;20.68;34.83;100108.41;5038496;28;45712;-71
2023/03/07 03:15:02;;;;;;;;;7.00;4.50;;;;;20.60;34.99;100096.97;5026176;28;45450;-71
2023/03/07 03:17:27;;;;;;;;;2.00;2.00;;;;;20.62;35.33;100097.59;5033665;28;45312;-70
2023/03/07 03:19:53;;;;;;;;;4.00;4.00;;;;;20.65;35.22;100106.97;5037424;28;45420;-71
2023/03/07 03:22:19;;;;;;;;;4.00;4.00;;;;;20.65;35.17;100101.69;5039149;28;45805;-71
2023/03/07 03:24:44;;;;;;;;;3.75;3.75;;;;;20.65;35.38;100098.22;5038951;28;45358;-71
2023/03/07 03:27:10;;;;;;;;;4.00;3.00;;;;;20.60;35.14;100093.50;5039144;28;46071;-71
2023/03/07 03:29:35;;;;;;;;;4.75;4.00;;;;;20.63;35.00;100098.41;5036028;28;45585;-70
2023/03/07 03:32:01;;;;;;;;;6.00;3.00;;;;;20.65;34.92;100100.84;5036247;28;45445;-70
2023/03/07 03:34:26;;;;;;;;;5.50;4.00;;;;;20.65;34.98;100099.03;5045272;28;45355;-71
2023/03/07 03:36:52;;;;;;;;;3.00;3.00;;;;;20.64;35.26;100094.75;5039165;28;46269;-71
2023/03/07 03:39:17;;;;;;;;;4.25;2.25;;;;;20.65;35.31;100098.22;5035558;28;45480;-71
2023/03/07 03:41:43;;;;;;;;;5.00;5.00;;;;;20.62;35.12;100088.84;5035924;28;45462;-71
2023/03/07 03:44:08;;;;;;;;;3.00;3.00;;;;;20.64;35.43;100089.44;5038710;28;45438;-71
2023/03/07 03:46:35;;;;;;;;;4.00;4.00;;;;;20.65;34.99;100090.28;5039879;28;45862;-71
2023/03/07 03:49:00;;;;;;;;;4.50;3.25;;;;;20.63;34.92;100078.06;5036526;28;45299;-70
2023/03/07 03:51:26;;;;;;;;;2.50;2.50;;;;;20.66;35.44;100079.50;5036246;28;45423;-71
2023/03/07 03:53:52;;;;;;;;;4.25;3.00;;;;;20.66;35.21;100074.22;5037790;28;45329;-71
2023/03/07 03:56:20;;;;;;;;;3.00;3.00;;;;;20.65;35.12;100069.94;5039730;28;46341;-71
2023/03/07 03:58:47;;;;;;;;;4.00;4.00;;;;;20.66;35.35;100066.28;5041940;28;45412;-71
2023/03/07 04:01:12;;;;;;;;;6.50;4.50;;;;;20.58;34.95;100054.03;5038733;28;45292;-71
2023/03/07 04:03:41;;;;;;;;;4.00;4.00;;;;;20.65;34.87;100064.66;5035712;28;45364;-71
2023/03/07 04:06:12;;;;;;;;;3.00;3.00;;;;;20.66;35.15;100066.28;5045904;28;45686;-71
2023/03/07 04:08:38;;;;;;;;;5.00;4.00;;;;;20.66;34.99;100063.66;5042631;28;45513;-71
2023/03/07 04:11:04;;;;;;;;;6.00;3.00;;;;;20.66;35.03;100062.84;5037874;28;45350;-71
2023/03/07 04:13:31;;;;;;;;;4.25;4.25;;;;;20.60;35.36;100056.50;5035819;28;45348;-71
2023/03/07 04:15:56;;;;;;;;;4.50;4.00;;;;;20.65;35.38;100062.03;5022420;28;46339;-71
2023/03/07 04:18:23;;;;;;;;;3.50;3.50;;;;;20.58;35.07;100051.38;5035757;28;45370;-72
2023/03/07 04:20:49;;;;;;;;;5.25;4.00;;;;;20.67;35.03;100054.72;5035689;28;45477;-71
2023/03/07 04:23:18;;;;;;;;;3.00;3.00;;;;;20.66;35.02;100058.34;5035771;28;45297;-71
2023/03/07 04:25:54;;;;;;;;;3.00;3.00;;;;;20.67;35.14;100057.34;5035102;28;46167;-70
2023/03/07 04:28:20;;;;;;;;;4.75;4.75;;;;;20.66;35.17;100053.06;5035153;28;45378;-71
2023/03/07 04:30:48;;;;;;;;;4.00;3.25;;;;;20.66;35.17;100054.91;5035709;28;45379;-71
2023/03/07 04:33:15;;;;;;;;;2.00;2.00;;;;;20.66;35.21;100045.13;5045856;28;45337;-71
2023/03/07 04:35:40;;;;;;;;;2.25;2.25;;;;;20.66;35.14;100045.13;5034772;28;45392;-71
2023/03/07 04:38:06;;;;;;;;;3.00;2.75;;;;;20.67;34.82;100045.97;5034323;28;45391;-71
2023/03/07 04:40:33;;;;;;;;;2.67;2.67;;;;;20.63;35.19;100041.06;5035367;28;45395;-71
2023/03/07 04:42:59;;;;;;;;;3.00;2.50;;;;;20.63;34.85;100033.13;5045845;28;45452;-71
2023/03/07 04:45:24;;;;;;;;;4.00;3.00;;;;;20.66;35.04;100041.72;5042576;28;47111;-71
2023/03/07 04:47:50;;;;;;;;;2.00;2.00;;;;;20.63;35.27;100048.97;5044203;28;45392;-71
2023/03/07 04:50:18;;;;;;;;;4.00;4.00;;;;;20.64;35.15;100041.88;5035563;28;45780;-72
2023/03/07 04:52:44;;;;;;;;;3.75;3.75;;;;;20.64;35.17;100041.88;5035762;28;45510;-71
2023/03/07 04:55:10;;;;;;;;;4.00;3.00;;;;;20.53;35.27;100024.72;5035177;28;47182;-71
2023/03/07 04:57:35;;;;;;;;;3.50;3.00;;;;;20.60;35.33;100038.81;5034397;28;45560;-71
2023/03/07 05:00:01;;;;;;;;;3.00;3.00;;;;;20.64;34.79;100036.59;5035519;28;45380;-71
2023/03/07 05:02:26;;;;;;;;;6.00;3.00;;;;;20.63;34.96;100034.97;5035258;28;45465;-71
2023/03/07 05:04:51;;;;;;;;;3.75;3.75;;;;;20.61;34.86;100024.56;5035069;28;46604;-70
2023/03/07 05:07:17;;;;;;;;;3.75;3.00;;;;;20.63;34.89;100032.34;5035011;28;45385;-70
2023/03/07 05:09:42;;;;;;;;;2.50;1.75;;;;;20.61;35.02;100032.50;5037461;28;45539;-70
2023/03/07 05:12:08;;;;;;;;;5.00;3.00;;;;;20.57;34.87;100028.63;5034675;28;45465;-72
2023/03/07 05:14:33;;;;;;;;;3.25;3.00;;;;;20.62;35.00;100039.44;5028411;28;45402;-70
2023/03/07 05:16:58;;;;;;;;;2.25;2.25;;;;;20.58;34.87;100030.22;5028584;28;45367;-71
2023/03/07 05:19:24;;;;;;;;;3.00;3.00;;;;;20.62;34.79;100030.69;5034927;28;45297;-71
2023/03/07 05:21:49;;;;;;;;;3.00;3.00;;;;;20.62;35.14;100034.16;5035164;28;45138;-71
2023/03/07 05:24:14;;;;;;;;;4.00;3.00;;;;;20.60;35.05;100027.41;5020876;28;47478;-70
2023/03/07 05:26:40;;;;;;;;;6.00;5.50;;;;;20.62;34.70;100025.41;5016924;28;45397;-71
2023/03/07 05:29:06;;;;;;;;;1.75;1.75;;;;;20.61;34.92;100015.81;5039026;28;45390;-71
2023/03/07 05:31:32;;;;;;;;;2.50;2.50;;;;;20.62;34.60;100020.13;5034524;28;45368;-71
2023/03/07 05:33:57;;;;;;;;;4.00;4.00;;;;;20.61;34.75;100019.28;5020988;28;45466;-71
2023/03/07 05:36:22;;;;;;;;;4.00;3.00;;;;;20.61;34.85;100019.28;5037069;28;45378;-70
2023/03/07 05:38:48;;;;;;;;;5.00;3.00;;;;;20.61;34.67;100013.19;5028350;28;45343;-71
2023/03/07 05:41:13;;;;;;;;;3.75;2.75;;;;;20.61;35.00;100013.19;5009672;28;45467;-71
2023/03/07 05:43:38;;;;;;;;;3.50;3.50;;;;;20.62;34.85;100014.81;5034579;28;46295;-71
2023/03/07 05:46:04;;;;;;;;;4.75;3.00;;;;;20.57;34.69;100002.19;5036470;28;45358;-69
2023/03/07 05:48:29;;;;;;;;;2.00;2.00;;;;;20.57;34.76;100001.38;5038074;28;45351;-71
2023/03/07 05:50:59;;;;;;;;;4.00;3.00;;;;;20.59;34.85;100005.44;5038470;28;45299;-70
2023/03/07 05:53:24;;;;;;;;;3.00;3.00;;;;;20.55;34.89;99998.09;5043901;28;47006;-69
2023/03/07 05:55:49;;;;;;;;;4.00;3.00;;;;;20.61;35.08;100000.78;5016828;28;45368;-71
2023/03/07 05:58:15;;;;;;;;;3.00;3.00;;;;;20.52;34.59;99988.72;5038101;28;45224;-71
2023/03/07 06:00:40;;;;;;;;;3.75;3.75;;;;;20.61;35.06;100014.00;5044391;28;45232;-71
2023/03/07 06:03:05;;;;;;;;;3.00;1.50;;;;;20.62;34.93;100006.91;5036909;28;48079;-71
2023/03/07 06:05:31;;;;;;;;;3.50;2.00;;;;;20.59;34.50;100000.16;5046441;28;45462;-71
2023/03/07 06:07:56;;;;;;;;;3.25;3.00;;;;;20.61;34.68;100002.59;5020034;28;45462;-70
2023/03/07 06:10:22;;;;;;;;;2.25;2.25;;;;;20.55;34.96;99993.63;5037877;28;45374;-71
2023/03/07 06:12:52;;;;;;;;;3.00;3.00;;;;;20.61;34.76;100006.06;5037553;28;46274;-71
2023/03/07 06:15:18;;;;;;;;;3.00;1.75;;;;;20.56;35.15;100005.81;5032587;28;45426;-70
2023/03/07 06:17:43;;;;;;;;;3.00;3.00;;;;;20.60;34.99;100009.75;5038723;28;45347;-71
2023/03/07 06:20:09;;;;;;;;;3.25;3.25;;;;;20.59;35.03;100007.28;5043736;28;45505;-71
2023/03/07 06:22:37;;;;;;;;;3.00;3.00;;;;;20.55;34.94;100000.75;5036917;28;45406;-72
2023/03/07 06:25:03;;;;;;;;;3.00;2.25;;;;;20.50;34.50;99994.22;5036814;28;45371;-72
2023/03/07 06:27:33;;;;;;;;;3.33;3.00;;;;;20.59;34.95;100000.16;5037375;28;45387;-73
2023/03/07 06:29:58;;;;;;;;;1.50;1.50;;;;;20.45;34.59;99980.75;5037624;28;45355;-70
2023/03/07 06:32:24;;;;;;;;;4.00;4.00;;;;;20.59;34.84;100000.16;5041349;28;45627;-72
2023/03/07 06:34:49;;;;;;;;;2.75;2.75;;;;;20.59;34.60;100002.81;5026934;28;45456;-71
2023/03/07 06:37:14;;;;;;;;;5.00;3.00;;;;;20.59;35.25;99994.88;5035808;28;45307;-73
2023/03/07 06:39:40;;;;;;;;;3.00;2.00;;;;;20.56;34.95;99994.44;5037176;28;45295;-71
2023/03/07 06:42:05;;;;;;;;;3.50;3.00;;;;;20.61;34.94;100000.78;5036389;28;46118;-72
2023/03/07 06:44:31;;;;;;;;;3.00;3.00;;;;;20.61;35.23;100007.91;5035868;28;45391;-74
2023/03/07 06:46:56;;;;;;;;;2.50;2.50;;;;;20.61;35.32;100003.44;5036414;28;45275;-75
2023/03/07 06:49:21;;;;;;;;;1.50;1.50;;;;;20.62;35.46;100010.38;5017970;28;45476;-76
2023/03/07 06:51:47;;;;;;;;;2.00;2.00;;;;;20.60;35.06;100003.63;5034198;28;45510;-75
2023/03/07 06:54:12;;;;;;;;;2.00;2.00;;;;;20.63;35.36;100003.25;5035598;28;45398;-75
2023/03/07 06:56:37;;;;;;;;;3.00;3.00;;;;;20.59;35.37;99999.34;5036045;28;45644;-73
2023/03/07 06:59:03;;;;;;;;;2.50;2.50;;;;;20.63;35.45;100005.91;5036461;28;45359;-74
2023/03/07 07:01:28;;;;;;;;;2.25;2.25;;;;;20.63;35.28;100008.53;5035165;28;46024;-75
2023/03/07 07:03:53;;;;;;;;;3.25;3.25;;;;;20.63;35.36;100005.91;5029496;28;45589;-76
2023/03/07 07:06:19;;;;;;;;;3.25;3.00;;;;;20.63;35.23;100011.97;4996851;28;45537;-76
2023/03/07 07:08:44;;;;;;;;;3.00;3.00;;;;;20.62;35.22;100010.38;5015150;28;45608;-77
2023/03/07 07:11:09;;;;;;;;;4.00;4.00;;;;;20.59;34.35;100010.75;5034761;28;45453;-76
2023/03/07 07:13:35;;;;;;;;;4.25;3.25;;;;;20.58;34.64;100014.38;5036525;28;45484;-74
2023/03/07 07:16:05;;;;;;;;;3.75;2.75;;;;;20.58;35.32;100011.72;5023622;28;46026;-74
2023/03/07 07:18:31;;;;;;;;;4.00;3.00;;;;;20.57;34.81;100004.00;5036447;28;45484;-75
2023/03/07 07:20:57;;;;;;;;;6.00;3.25;;;;;20.58;34.86;100009.09;5035297;28;46214;-74
2023/03/07 07:23:22;;;;;;;;;5.00;3.00;;;;;20.57;35.00;100012.75;5036365;28;45382;-74
2023/03/07 07:25:47;;;;;;;;;3.00;3.00;;;;;20.58;35.37;100009.09;5035522;28;45846;-75
2023/03/07 07:28:13;;;;;;;;;5.75;2.00;;;;;20.59;35.21;100013.38;5044449;28;45352;-74
2023/03/07 07:30:38;;;;;;;;;2.25;1.00;;;;;20.61;34.99;100011.34;5036159;28;45378;-74
2023/03/07 07:33:04;;;;;;;;;3.50;3.50;;;;;20.60;34.93;100001.81;5036685;28;45484;-75
2023/03/07 07:35:29;;;;;;;;;5.25;3.00;;;;;20.59;35.29;100004.63;5035955;28;45496;-74
2023/03/07 07:37:54;;;;;;;;;3.00;2.00;;;;;20.58;35.14;100008.28;5036121;28;45228;-74
2023/03/07 07:40:20;;;;;;;;;3.75;2.00;;;;;20.58;35.16;100011.72;5036084;28;46030;-74
2023/03/07 07:42:53;;;;;;;;;6.75;4.00;;;;;20.61;35.12;100014.00;5018349;28;45303;-74
2023/03/07 07:45:21;;;;;;;;;4.25;2.00;;;;;20.61;35.13;100015.81;5036343;28;45410;-74
2023/03/07 07:47:48;;;;;;;;;1.75;1.75;;;;;20.59;35.11;100010.75;5035494;28;45304;-74
2023/03/07 07:50:18;;;;;;;;;3.50;2.50;;;;;20.60;35.50;100015.03;5035578;28;47193;-75
2023/03/07 07:52:44;;;;;;;;;3.00;2.75;;;;;20.60;35.10;100015.03;5036144;28;45275;-75
2023/03/07 07:55:12;;;;;;;;;3.00;3.00;;;;;20.61;35.30;100015.81;5042102;28;45308;-75
2023/03/07 07:57:37;;;;;;;;;5.25;4.00;;;;;20.59;35.00;100012.56;5041292;28;45461;-74
2023/03/07 08:00:04;;;;;;;;;3.75;2.50;;;;;20.59;35.21;100016.03;5035997;28;45791;-75
2023/03/07 08:02:29;;;;;;;;;2.50;2.00;;;;;20.59;35.06;100016.03;5036061;28;45340;-74
2023/03/07 08:04:55;;;;;;;;;2.00;2.00;;;;;20.59;35.01;100021.31;5046342;28;45425;-74
2023/03/07 08:07:21;;;;;;;;;3.00;2.00;;;;;20.50;35.17;99998.69;5036090;28;45442;-75
2023/03/07 08:09:47;;;;;;;;;2.00;2.00;;;;;20.60;35.17;100012.38;5035002;28;45496;-75
2023/03/07 08:12:12;;;;;;;;;4.00;4.00;;;;;20.56;34.96;100005.81;5035022;28;45420;-74
2023/03/07 08:14:38;;;;;;;;;2.75;2.00;;;;;20.59;35.03;100008.09;5029298;28;45904;-74
2023/03/07 08:17:04;;;;;;;;;3.25;2.00;;;;;20.60;34.99;100006.28;5030251;28;45444;-75
2023/03/07 08:19:29;;;;;;;;;3.50;2.00;;;;;20.59;34.90;100004.63;5035591;28;46267;-74
2023/03/07 08:21:55;;;;;;;;;2.00;2.00;;;;;20.50;35.05;99996.03;5035126;28;45463;-74
2023/03/07 08:24:20;;;;;;;;;2.00;2.00;;;;;20.59;35.03;100018.66;5036066;28;45424;-74
2023/03/07 08:26:46;;;;;;;;;3.50;1.75;;;;;20.60;35.14;100012.38;5035775;28;45410;-74
2023/03/07 08:29:12;;;;;;;;;3.00;3.00;;;;;20.59;34.86;100008.09;5035702;28;46115;-75
2023/03/07 08:31:37;;;;;;;;;3.00;3.00;;;;;20.56;35.16;100002.38;5035621;28;45356;-75
2023/03/07 08:34:03;;;;;;;;;2.00;2.00;;;;;20.59;35.19;100010.75;5035500;28;45390;-74
2023/03/07 08:36:28;;;;;;;;;2.50;2.50;;;;;20.59;34.96;100005.44;5034757;28;45379;-74
2023/03/07 08:38:54;;;;;;;;;2.25;2.25;;;;;20.60;34.81;100006.28;5035630;28;46163;-75
2023/03/07 08:41:21;;;;;;;;;1.50;1.50;;;;;20.60;34.93;100008.91;5035010;28;45433;-75
2023/03/07 08:43:46;;;;;;;;;2.00;1.75;;;;;20.58;34.76;100006.44;5035613;28;45288;-74
2023/03/07 08:46:12;;;;;;;;;2.00;2.00;;;;;20.59;35.02;100002.00;5035262;28;45154;-75
2023/03/07 08:48:37;;;;;;;;;3.00;1.00;;;;;20.55;34.95;99991.00;5034940;28;46162;-75
2023/03/07 08:51:05;;;;;;;;;2.50;2.50;;;;;20.60;35.00;99993.88;5035710;28;45446;-75
2023/03/07 08:53:31;;;;;;;;;3.00;3.00;;;;;20.59;35.01;99994.88;5035655;28;45403;-75
2023/03/07 08:55:56;;;;;;;;;2.50;1.25;;;;;20.60;34.72;99993.88;5035655;28;45386;-74
2023/03/07 08:58:21;;;;;;;;;2.25;2.00;;;;;20.59;34.96;100000.16;5035081;28;46189;-74
2023/03/07 09:00:47;;;;;;;;;2.75;2.50;;;;;20.59;34.83;99992.25;5035197;28;45391;-73
2023/03/07 09:03:12;;;;;;;;;2.75;2.75;;;;;20.59;35.15;99989.59;5035137;28;45299;-74
2023/03/07 09:05:38;;;;;;;;;2.00;2.00;;;;;20.60;35.14;99996.53;5035318;28;45295;-74
2023/03/07 09:08:05;;;;;;;;;2.25;2.25;;;;;20.61;35.07;99995.50;5034340;28;46263;-74
2023/03/07 09:10:31;;;;;;;;;1.25;1.25;;;;;20.61;34.84;99992.03;5035286;28;45325;-74
2023/03/07 09:12:56;;;;;;;;;2.00;2.00;;;;;20.61;35.00;99987.56;5022286;28;45388;-73
2023/03/07 09:15:22;;;;;;;;;3.00;1.75;;;;;20.61;35.02;99992.03;5035082;28;45366;-74
2023/03/07 09:17:47;;;;;;;;;2.00;2.00;;;;;20.62;35.15;99985.75;5034171;28;45988;-74
2023/03/07 09:20:15;;;;;;;;;2.00;2.00;;;;;20.57;34.91;99967.84;5035863;28;45466;-73
2023/03/07 09:22:40;;;;;;;;;2.00;1.00;;;;;20.60;35.06;99980.66;5038838;28;45405;-74
2023/03/07 09:25:06;;;;;;;;;2.00;2.00;;;;;20.59;34.91;99980.84;5038509;28;46115;-74
2023/03/07 09:27:31;;;;;;;;;2.67;2.67;;;;;20.60;34.89;99982.50;5038610;28;45461;-74
2023/03/07 09:29:56;;;;;;;;;2.00;2.00;;;;;20.60;34.99;99982.50;5038581;28;45465;-73
2023/03/07 09:32:22;;;;;;;;;3.25;3.00;;;;;20.59;34.87;99976.38;5038080;28;45418;-74
2023/03/07 09:34:47;;;;;;;;;3.00;2.00;;;;;20.59;35.10;99976.38;5038595;28;45386;-74
2023/03/07 09:37:12;;;;;;;;;1.00;1.00;;;;;20.60;34.90;99979.84;5037612;28;45990;-74
2023/03/07 09:39:38;;;;;;;;;2.50;1.50;;;;;20.58;35.14;99972.09;5038250;28;45369;-74
2023/03/07 09:42:30;;;;;;;;;2.50;2.00;;;;;20.58;34.84;99977.38;5038286;28;45540;-73
2023/03/07 09:44:58;;;;;;;;;3.00;3.00;;;;;20.59;35.00;99972.91;4940581;28;45430;-73
2023/03/07 09:47:50;;;;;;;;;2.00;1.25;;;;;20.53;35.03;99960.47;4937090;28;45408;-74
2023/03/07 09:50:38;;;;;;;;;2.25;2.25;;;;;20.59;34.86;99967.63;4937199;28;45513;-73
2023/03/07 09:53:04;;;;;;;;;1.00;1.00;;;;;20.59;34.78;99965.81;4936920;28;45496;-73
2023/03/07 09:55:31;;;;;;;;;2.00;2.00;;;;;20.60;34.99;99966.63;4937598;28;45385;-73
2023/03/07 09:58:00;;;;;;;;;3.50;2.00;;;;;20.49;34.96;99942.38;4937060;28;46172;-74
2023/03/07 10:00:39;;;;;;;;;2.75;2.00;;;;;20.59;34.69;99960.53;4937084;28;45381;-74
2023/03/07 10:03:29;;;;;;;;;3.50;3.00;;;;;20.58;34.92;99960.72;4937497;28;45436;-74
2023/03/07 10:06:00;;;;;;;;;1.25;1.25;;;;;20.58;34.83;99960.72;4937142;28;45497;-74
2023/03/07 10:08:31;;;;;;;;;2.25;1.00;;;;;20.57;34.72;99965.19;4937319;28;46258;-73
2023/03/07 10:11:15;;;;;;;;;2.50;1.75;;;;;20.58;34.49;99966.00;4937377;28;45527;-73
2023/03/07 10:14:08;;;;;;;;;2.50;2.50;;;;;20.58;34.95;99966.81;4937274;28;45434;-74
2023/03/07 10:16:50;;;;;;;;;2.75;2.00;;;;;20.58;34.74;99974.72;4936997;28;45571;-73
2023/03/07 10:19:35;;;;;;;;;2.00;2.00;;;;;20.58;34.60;99966.81;4936871;28;46155;-73
2023/03/07 10:22:11;;;;;;;;;1.50;1.50;;;;;20.58;34.78;99966.81;4988815;28;45539;-74
2023/03/07 10:24:49;;;;;;;;;3.00;2.25;;;;;20.58;34.77;99966.00;5037351;28;45336;-73
2023/03/07 10:27:15;;;;;;;;;1.00;1.00;;;;;20.58;34.76;99955.44;5037183;28;45393;-73
2023/03/07 10:29:49;;;;;;;;;3.00;2.00;;;;;20.53;34.86;99956.03;5037406;28;45307;-74
2023/03/07 10:32:25;;;;;;;;;3.00;2.00;;;;;20.57;34.58;99959.09;5015969;28;45544;-73
2023/03/07 10:35:03;;;;;;;;;1.25;1.25;;;;;20.56;34.70;99949.50;5031259;28;45912;-74
2023/03/07 10:37:43;;;;;;;;;2.00;2.00;;;;;20.59;34.93;99951.78;5037362;28;45550;-73
2023/03/07 10:40:33;;;;;;;;;2.25;2.25;;;;;20.60;34.62;99945.50;5034418;28;46381;-73
2023/03/07 10:42:59;;;;;;;;;1.00;1.00;;;;;20.61;34.90;99949.75;5036229;28;45430;-73
2023/03/07 10:45:29;;;;;;;;;1.75;1.75;;;;;20.56;34.95;99939.75;5036837;28;45357;-73
2023/03/07 10:47:54;;;;;;;;;0.75;0.75;;;;;20.61;34.65;99952.38;5037244;28;45448;-73
2023/03/07 10:50:31;;;;;;;;;1.00;1.00;;;;;20.61;34.66;99945.28;5037205;28;45962;-73
2023/03/07 10:52:59;;;;;;;;;1.00;1.00;;;;;20.60;34.70;99948.97;5037428;28;45346;-74
2023/03/07 10:55:42;;;;;;;;;1.00;1.00;;;;;20.60;34.66;99942.84;5043066;28;45402;-73
2023/03/07 10:58:29;;;;;;;;;2.00;2.00;;;;;20.61;34.63;99944.47;5021581;28;45409;-73
2023/03/07 11:01:06;;;;;;;;;2.00;1.00;;;;;20.61;34.68;99939.19;5041043;28;47270;-73
2023/03/07 11:03:38;;;;;;;;;2.00;1.00;;;;;20.61;34.94;99936.53;5036923;28;45319;-73
2023/03/07 11:06:04;;;;;;;;;2.00;1.00;;;;;20.61;34.69;99939.19;5036553;28;45398;-73
2023/03/07 11:08:31;;;;;;;;;1.25;1.25;;;;;20.60;34.82;99938.38;5037000;28;45414;-73
2023/03/07 11:10:58;;;;;;;;;3.25;3.00;;;;;20.56;34.87;99931.81;5036779;28;46339;-73
2023/03/07 11:13:24;;;;;;;;;2.25;1.00;;;;;20.60;34.53;99937.56;5036267;28;45346;-74
2023/03/07 11:15:51;;;;;;;;;1.00;1.00;;;;;20.61;34.58;99939.19;5023277;28;45271;-73
2023/03/07 11:18:29;;;;;;;;;2.00;2.00;;;;;20.61;34.55;99945.28;5036729;28;45499;-74
2023/03/07 11:20:55;;;;;;;;;2.00;2.00;;;;;20.62;34.97;99954.03;5036641;28;45312;-73
2023/03/07 11:23:30;;;;;;;;;1.00;1.00;;;;;20.59;34.98;99955.25;5036613;28;45446;-73
2023/03/07 11:26:12;;;;;;;;;3.75;2.00;;;;;20.62;34.57;99951.41;5036722;28;45430;-73
2023/03/07 11:28:38;;;;;;;;;1.00;1.00;;;;;20.61;34.98;99955.03;5034827;28;45307;-74